sensor_id;sensor_type;location;lat;lon;timestamp;P1;durP1;ratioP1;P2;durP2;ratioP2
46875;SDS011;32866;50.160;14.768;2022-10-22T00:01:38;21.20;;;13.82;;
46875;SDS011;32866;50.160;14.768;2022-10-22T00:04:03;20.55;;;12.18;;
46875;SDS011;32866;50.160;14.768;2022-10-22T00:06:29;20.42;;;13.50;;
46875;SDS011;32866;50.160;14.768;2022-10-22T00:08:54;19.50;;;15.02;;
46875;SDS011;32866;50.160;14.768;2022-10-22T00:11:20;21.13;;;13.18;;
46875;SDS011;32866;50.160;14.768;2022-10-22T00:13:46;17.50;;;13.57;;
46875;SDS011;32866;50.160;14.768;2022-10-22T00:16:12;21.43;;;13.30;;
46875;SDS011;32866;50.160;14.768;2022-10-22T00:18:38;20.63;;;13.40;;
46875;SDS011;32866;50.160;14.768;2022-10-22T00:21:04;20.80;;;13.75;;
46875;SDS011;32866;50.160;14.768;2022-10-22T00:23:30;25.57;;;14.00;;
46875;SDS011;32866;50.160;14.768;2022-10-22T00:25:55;17.95;;;11.55;;
46875;SDS011;32866;50.160;14.768;2022-10-22T00:28:21;18.50;;;13.25;;
46875;SDS011;32866;50.160;14.768;2022-10-22T00:30:46;22.88;;;13.32;;
46875;SDS011;32866;50.160;14.768;2022-10-22T00:33:12;20.92;;;13.23;;
46875;SDS011;32866;50.160;14.768;2022-10-22T00:35:37;18.63;;;12.85;;
46875;SDS011;32866;50.160;14.768;2022-10-22T00:38:02;18.17;;;12.05;;
46875;SDS011;32866;50.160;14.768;2022-10-22T00:40:28;23.70;;;14.18;;
46875;SDS011;32866;50.160;14.768;2022-10-22T00:42:53;18.08;;;12.63;;
46875;SDS011;32866;50.160;14.768;2022-10-22T00:50:33;24.93;;;13.30;;
46875;SDS011;32866;50.160;14.768;2022-10-22T00:53:02;22.80;;;14.30;;
46875;SDS011;32866;50.160;14.768;2022-10-22T00:55:30;18.60;;;11.87;;
46875;SDS011;32866;50.160;14.768;2022-10-22T00:57:57;19.23;;;12.90;;
46875;SDS011;32866;50.160;14.768;2022-10-22T01:00:24;18.57;;;12.00;;
46875;SDS011;32866;50.160;14.768;2022-10-22T01:02:50;21.38;;;13.18;;
46875;SDS011;32866;50.160;14.768;2022-10-22T01:05:16;18.80;;;12.27;;
46875;SDS011;32866;50.160;14.768;2022-10-22T01:07:51;17.17;;;12.63;;
46875;SDS011;32866;50.160;14.768;2022-10-22T01:15:37;20.23;;;12.17;;
46875;SDS011;32866;50.160;14.768;2022-10-22T01:26:12;18.52;;;11.90;;
46875;SDS011;32866;50.160;14.768;2022-10-22T01:28:59;22.47;;;12.70;;
46875;SDS011;32866;50.160;14.768;2022-10-22T01:31:46;19.20;;;12.47;;
46875;SDS011;32866;50.160;14.768;2022-10-22T01:34:19;21.90;;;12.37;;
46875;SDS011;32866;50.160;14.768;2022-10-22T01:36:48;18.33;;;11.47;;
46875;SDS011;32866;50.160;14.768;2022-10-22T01:39:16;18.80;;;11.87;;
46875;SDS011;32866;50.160;14.768;2022-10-22T01:41:43;18.07;;;11.80;;
46875;SDS011;32866;50.160;14.768;2022-10-22T01:44:24;18.47;;;12.57;;
46875;SDS011;32866;50.160;14.768;2022-10-22T01:52:38;21.20;;;12.60;;
46875;SDS011;32866;50.160;14.768;2022-10-22T01:55:21;15.47;;;10.63;;
46875;SDS011;32866;50.160;14.768;2022-10-22T02:00:45;18.97;;;11.37;;
46875;SDS011;32866;50.160;14.768;2022-10-22T02:03:19;18.37;;;12.23;;
46875;SDS011;32866;50.160;14.768;2022-10-22T02:06:00;16.70;;;12.13;;
46875;SDS011;32866;50.160;14.768;2022-10-22T02:08:31;18.17;;;11.57;;
46875;SDS011;32866;50.160;14.768;2022-10-22T02:10:59;16.63;;;10.27;;
46875;SDS011;32866;50.160;14.768;2022-10-22T02:13:29;14.70;;;10.27;;
46875;SDS011;32866;50.160;14.768;2022-10-22T02:16:02;15.02;;;10.00;;
46875;SDS011;32866;50.160;14.768;2022-10-22T02:18:30;19.03;;;10.93;;
46875;SDS011;32866;50.160;14.768;2022-10-22T02:20:59;22.33;;;11.27;;
46875;SDS011;32866;50.160;14.768;2022-10-22T02:23:25;19.33;;;10.33;;
46875;SDS011;32866;50.160;14.768;2022-10-22T02:25:55;18.73;;;9.80;;
46875;SDS011;32866;50.160;14.768;2022-10-22T02:28:37;14.47;;;11.00;;
46875;SDS011;32866;50.160;14.768;2022-10-22T02:31:13;17.03;;;10.63;;
46875;SDS011;32866;50.160;14.768;2022-10-22T02:33:46;15.10;;;10.80;;
46875;SDS011;32866;50.160;14.768;2022-10-22T02:36:17;15.10;;;10.60;;
46875;SDS011;32866;50.160;14.768;2022-10-22T02:38:43;19.00;;;11.67;;
46875;SDS011;32866;50.160;14.768;2022-10-22T02:41:11;17.93;;;11.37;;
46875;SDS011;32866;50.160;14.768;2022-10-22T02:43:40;16.00;;;10.27;;
46875;SDS011;32866;50.160;14.768;2022-10-22T02:46:08;22.43;;;11.10;;
46875;SDS011;32866;50.160;14.768;2022-10-22T02:48:36;15.70;;;10.43;;
46875;SDS011;32866;50.160;14.768;2022-10-22T02:51:01;19.42;;;11.02;;
46875;SDS011;32866;50.160;14.768;2022-10-22T02:53:27;19.13;;;13.27;;
46875;SDS011;32866;50.160;14.768;2022-10-22T02:55:52;18.50;;;11.60;;
46875;SDS011;32866;50.160;14.768;2022-10-22T02:58:18;16.38;;;10.35;;
46875;SDS011;32866;50.160;14.768;2022-10-22T03:00:43;15.43;;;10.30;;
46875;SDS011;32866;50.160;14.768;2022-10-22T03:03:08;21.60;;;11.63;;
46875;SDS011;32866;50.160;14.768;2022-10-22T03:05:34;16.58;;;10.73;;
46875;SDS011;32866;50.160;14.768;2022-10-22T03:07:59;16.98;;;11.75;;
46875;SDS011;32866;50.160;14.768;2022-10-22T03:10:24;14.77;;;9.68;;
46875;SDS011;32866;50.160;14.768;2022-10-22T03:12:50;16.70;;;10.98;;
46875;SDS011;32866;50.160;14.768;2022-10-22T03:15:15;16.10;;;11.50;;
46875;SDS011;32866;50.160;14.768;2022-10-22T03:17:40;15.35;;;10.05;;
46875;SDS011;32866;50.160;14.768;2022-10-22T03:20:06;15.73;;;11.30;;
46875;SDS011;32866;50.160;14.768;2022-10-22T03:22:32;23.17;;;11.80;;
46875;SDS011;32866;50.160;14.768;2022-10-22T03:24:59;21.60;;;11.43;;
46875;SDS011;32866;50.160;14.768;2022-10-22T03:27:31;18.17;;;12.30;;
46875;SDS011;32866;50.160;14.768;2022-10-22T03:29:59;17.20;;;11.60;;
46875;SDS011;32866;50.160;14.768;2022-10-22T03:32:26;20.93;;;11.43;;
46875;SDS011;32866;50.160;14.768;2022-10-22T03:34:51;16.73;;;11.57;;
46875;SDS011;32866;50.160;14.768;2022-10-22T03:37:17;17.20;;;10.77;;
46875;SDS011;32866;50.160;14.768;2022-10-22T03:39:42;17.25;;;11.68;;
46875;SDS011;32866;50.160;14.768;2022-10-22T03:42:08;20.65;;;13.73;;
46875;SDS011;32866;50.160;14.768;2022-10-22T03:44:35;20.10;;;11.55;;
46875;SDS011;32866;50.160;14.768;2022-10-22T03:47:02;17.93;;;11.87;;
46875;SDS011;32866;50.160;14.768;2022-10-22T03:49:27;17.52;;;11.27;;
46875;SDS011;32866;50.160;14.768;2022-10-22T03:51:53;18.92;;;11.80;;
46875;SDS011;32866;50.160;14.768;2022-10-22T03:54:18;18.50;;;11.95;;
46875;SDS011;32866;50.160;14.768;2022-10-22T03:56:44;22.90;;;13.27;;
46875;SDS011;32866;50.160;14.768;2022-10-22T03:59:09;22.92;;;12.60;;
46875;SDS011;32866;50.160;14.768;2022-10-22T04:01:34;17.05;;;11.55;;
46875;SDS011;32866;50.160;14.768;2022-10-22T04:04:00;16.90;;;11.60;;
46875;SDS011;32866;50.160;14.768;2022-10-22T04:06:27;23.48;;;12.05;;
46875;SDS011;32866;50.160;14.768;2022-10-22T04:08:53;17.23;;;11.50;;
46875;SDS011;32866;50.160;14.768;2022-10-22T04:11:19;17.45;;;12.52;;
46875;SDS011;32866;50.160;14.768;2022-10-22T04:13:44;15.32;;;10.35;;
46875;SDS011;32866;50.160;14.768;2022-10-22T04:16:10;17.95;;;11.27;;
46875;SDS011;32866;50.160;14.768;2022-10-22T04:18:46;19.00;;;12.68;;
46875;SDS011;32866;50.160;14.768;2022-10-22T04:21:15;18.10;;;11.73;;
46875;SDS011;32866;50.160;14.768;2022-10-22T04:23:46;24.17;;;12.43;;
46875;SDS011;32866;50.160;14.768;2022-10-22T04:26:13;16.70;;;11.80;;
46875;SDS011;32866;50.160;14.768;2022-10-22T04:28:39;16.70;;;11.05;;
46875;SDS011;32866;50.160;14.768;2022-10-22T04:31:08;17.17;;;11.60;;
46875;SDS011;32866;50.160;14.768;2022-10-22T04:33:35;18.33;;;10.87;;
46875;SDS011;32866;50.160;14.768;2022-10-22T04:36:05;18.58;;;11.02;;
46875;SDS011;32866;50.160;14.768;2022-10-22T04:38:31;19.73;;;11.93;;
46875;SDS011;32866;50.160;14.768;2022-10-22T04:40:56;17.73;;;11.52;;
46875;SDS011;32866;50.160;14.768;2022-10-22T04:43:22;17.33;;;12.45;;
46875;SDS011;32866;50.160;14.768;2022-10-22T04:45:47;15.98;;;10.85;;
46875;SDS011;32866;50.160;14.768;2022-10-22T04:48:13;17.27;;;11.35;;
46875;SDS011;32866;50.160;14.768;2022-10-22T04:50:38;19.00;;;11.75;;
46875;SDS011;32866;50.160;14.768;2022-10-22T04:53:03;25.50;;;11.30;;
46875;SDS011;32866;50.160;14.768;2022-10-22T04:55:29;16.45;;;11.40;;
46875;SDS011;32866;50.160;14.768;2022-10-22T04:57:54;16.02;;;12.38;;
46875;SDS011;32866;50.160;14.768;2022-10-22T05:00:19;17.27;;;11.48;;
46875;SDS011;32866;50.160;14.768;2022-10-22T05:02:48;19.08;;;11.27;;
46875;SDS011;32866;50.160;14.768;2022-10-22T05:05:14;17.87;;;12.47;;
46875;SDS011;32866;50.160;14.768;2022-10-22T05:07:39;15.13;;;11.82;;
46875;SDS011;32866;50.160;14.768;2022-10-22T05:10:05;17.10;;;11.40;;
46875;SDS011;32866;50.160;14.768;2022-10-22T05:12:30;20.42;;;10.98;;
46875;SDS011;32866;50.160;14.768;2022-10-22T05:14:56;18.20;;;11.70;;
46875;SDS011;32866;50.160;14.768;2022-10-22T05:17:21;17.13;;;11.90;;
46875;SDS011;32866;50.160;14.768;2022-10-22T05:19:47;17.35;;;12.07;;
46875;SDS011;32866;50.160;14.768;2022-10-22T05:22:12;15.52;;;10.43;;
46875;SDS011;32866;50.160;14.768;2022-10-22T05:24:37;15.95;;;11.30;;
46875;SDS011;32866;50.160;14.768;2022-10-22T05:27:03;18.92;;;12.43;;
46875;SDS011;32866;50.160;14.768;2022-10-22T05:29:28;15.57;;;10.18;;
46875;SDS011;32866;50.160;14.768;2022-10-22T05:31:53;20.33;;;11.27;;
46875;SDS011;32866;50.160;14.768;2022-10-22T05:34:19;18.35;;;12.27;;
46875;SDS011;32866;50.160;14.768;2022-10-22T05:36:44;20.02;;;13.02;;
46875;SDS011;32866;50.160;14.768;2022-10-22T05:39:10;19.02;;;11.63;;
46875;SDS011;32866;50.160;14.768;2022-10-22T05:41:35;18.27;;;12.50;;
46875;SDS011;32866;50.160;14.768;2022-10-22T05:44:01;15.85;;;10.98;;
46875;SDS011;32866;50.160;14.768;2022-10-22T05:46:27;21.80;;;12.52;;
46875;SDS011;32866;50.160;14.768;2022-10-22T05:48:58;21.37;;;11.90;;
46875;SDS011;32866;50.160;14.768;2022-10-22T05:51:26;19.43;;;12.33;;
46875;SDS011;32866;50.160;14.768;2022-10-22T05:53:54;17.50;;;11.37;;
46875;SDS011;32866;50.160;14.768;2022-10-22T05:56:24;24.90;;;12.47;;
46875;SDS011;32866;50.160;14.768;2022-10-22T05:58:51;21.70;;;13.30;;
46875;SDS011;32866;50.160;14.768;2022-10-22T06:01:18;15.85;;;10.57;;
46875;SDS011;32866;50.160;14.768;2022-10-22T06:03:48;20.83;;;13.17;;
46875;SDS011;32866;50.160;14.768;2022-10-22T06:06:20;18.17;;;12.00;;
46875;SDS011;32866;50.160;14.768;2022-10-22T06:08:51;20.30;;;12.10;;
46875;SDS011;32866;50.160;14.768;2022-10-22T06:11:19;17.33;;;12.27;;
46875;SDS011;32866;50.160;14.768;2022-10-22T06:13:46;19.63;;;12.43;;
46875;SDS011;32866;50.160;14.768;2022-10-22T06:16:13;20.53;;;13.57;;
46875;SDS011;32866;50.160;14.768;2022-10-22T06:18:39;18.38;;;13.10;;
46875;SDS011;32866;50.160;14.768;2022-10-22T06:21:05;19.35;;;13.10;;
46875;SDS011;32866;50.160;14.768;2022-10-22T06:23:32;20.87;;;13.53;;
46875;SDS011;32866;50.160;14.768;2022-10-22T06:25:57;27.20;;;14.02;;
46875;SDS011;32866;50.160;14.768;2022-10-22T06:28:23;23.48;;;13.75;;
46875;SDS011;32866;50.160;14.768;2022-10-22T06:30:48;21.75;;;14.57;;
46875;SDS011;32866;50.160;14.768;2022-10-22T06:33:14;18.30;;;12.50;;
46875;SDS011;32866;50.160;14.768;2022-10-22T06:35:39;22.73;;;14.32;;
46875;SDS011;32866;50.160;14.768;2022-10-22T06:38:05;22.17;;;13.98;;
46875;SDS011;32866;50.160;14.768;2022-10-22T06:40:31;21.60;;;13.52;;
46875;SDS011;32866;50.160;14.768;2022-10-22T06:43:00;22.90;;;15.23;;
46875;SDS011;32866;50.160;14.768;2022-10-22T06:45:25;21.63;;;15.10;;
46875;SDS011;32866;50.160;14.768;2022-10-22T06:47:50;18.90;;;14.02;;
46875;SDS011;32866;50.160;14.768;2022-10-22T06:50:16;23.20;;;16.90;;
46875;SDS011;32866;50.160;14.768;2022-10-22T06:52:42;23.83;;;15.55;;
46875;SDS011;32866;50.160;14.768;2022-10-22T06:55:07;22.35;;;15.07;;
46875;SDS011;32866;50.160;14.768;2022-10-22T06:57:33;25.00;;;15.50;;
46875;SDS011;32866;50.160;14.768;2022-10-22T06:59:58;27.35;;;15.13;;
46875;SDS011;32866;50.160;14.768;2022-10-22T07:02:23;21.05;;;14.63;;
46875;SDS011;32866;50.160;14.768;2022-10-22T07:04:49;27.90;;;15.60;;
46875;SDS011;32866;50.160;14.768;2022-10-22T07:07:14;33.50;;;20.00;;
46875;SDS011;32866;50.160;14.768;2022-10-22T07:09:40;39.08;;;20.95;;
46875;SDS011;32866;50.160;14.768;2022-10-22T07:12:24;22.85;;;14.60;;
46875;SDS011;32866;50.160;14.768;2022-10-22T07:14:56;21.20;;;13.97;;
46875;SDS011;32866;50.160;14.768;2022-10-22T07:17:21;25.23;;;15.37;;
46875;SDS011;32866;50.160;14.768;2022-10-22T07:19:46;27.90;;;15.68;;
46875;SDS011;32866;50.160;14.768;2022-10-22T07:22:11;21.20;;;13.98;;
46875;SDS011;32866;50.160;14.768;2022-10-22T07:24:37;21.95;;;14.98;;
46875;SDS011;32866;50.160;14.768;2022-10-22T07:27:02;26.27;;;14.38;;
46875;SDS011;32866;50.160;14.768;2022-10-22T07:29:28;18.75;;;12.15;;
46875;SDS011;32866;50.160;14.768;2022-10-22T07:31:53;21.15;;;14.45;;
46875;SDS011;32866;50.160;14.768;2022-10-22T07:34:18;22.30;;;14.52;;
46875;SDS011;32866;50.160;14.768;2022-10-22T07:36:44;21.50;;;13.98;;
46875;SDS011;32866;50.160;14.768;2022-10-22T07:39:09;22.05;;;14.07;;
46875;SDS011;32866;50.160;14.768;2022-10-22T07:41:34;18.67;;;13.77;;
46875;SDS011;32866;50.160;14.768;2022-10-22T07:44:00;25.20;;;15.90;;
46875;SDS011;32866;50.160;14.768;2022-10-22T07:46:25;18.83;;;14.48;;
46875;SDS011;32866;50.160;14.768;2022-10-22T07:48:51;22.23;;;14.57;;
46875;SDS011;32866;50.160;14.768;2022-10-22T07:51:16;25.85;;;14.40;;
46875;SDS011;32866;50.160;14.768;2022-10-22T07:53:42;23.58;;;14.23;;
46875;SDS011;32866;50.160;14.768;2022-10-22T07:56:07;21.40;;;13.40;;
46875;SDS011;32866;50.160;14.768;2022-10-22T07:58:33;20.95;;;13.88;;
46875;SDS011;32866;50.160;14.768;2022-10-22T08:00:59;19.73;;;13.98;;
46875;SDS011;32866;50.160;14.768;2022-10-22T08:03:26;22.30;;;14.33;;
46875;SDS011;32866;50.160;14.768;2022-10-22T08:08:27;19.03;;;13.27;;
46875;SDS011;32866;50.160;14.768;2022-10-22T08:10:54;23.33;;;15.20;;
46875;SDS011;32866;50.160;14.768;2022-10-22T08:13:21;21.40;;;13.13;;
46875;SDS011;32866;50.160;14.768;2022-10-22T08:15:47;21.55;;;12.88;;
46875;SDS011;32866;50.160;14.768;2022-10-22T08:18:12;20.58;;;13.38;;
46875;SDS011;32866;50.160;14.768;2022-10-22T08:20:38;22.58;;;13.55;;
46875;SDS011;32866;50.160;14.768;2022-10-22T08:23:03;21.95;;;15.27;;
46875;SDS011;32866;50.160;14.768;2022-10-22T08:25:29;27.00;;;16.25;;
46875;SDS011;32866;50.160;14.768;2022-10-22T08:27:55;22.52;;;15.65;;
46875;SDS011;32866;50.160;14.768;2022-10-22T08:30:20;23.85;;;14.38;;
46875;SDS011;32866;50.160;14.768;2022-10-22T08:32:45;22.67;;;14.82;;
46875;SDS011;32866;50.160;14.768;2022-10-22T08:35:11;23.40;;;13.65;;
46875;SDS011;32866;50.160;14.768;2022-10-22T08:37:36;21.33;;;14.18;;
46875;SDS011;32866;50.160;14.768;2022-10-22T08:40:03;22.08;;;13.85;;
46875;SDS011;32866;50.160;14.768;2022-10-22T08:45:29;26.73;;;16.10;;
46875;SDS011;32866;50.160;14.768;2022-10-22T08:51:00;21.30;;;13.93;;
46875;SDS011;32866;50.160;14.768;2022-10-22T08:53:33;24.05;;;15.25;;
46875;SDS011;32866;50.160;14.768;2022-10-22T08:56:05;36.33;;;21.33;;
46875;SDS011;32866;50.160;14.768;2022-10-22T09:01:09;24.80;;;16.80;;
46875;SDS011;32866;50.160;14.768;2022-10-22T09:06:26;25.67;;;15.43;;
46875;SDS011;32866;50.160;14.768;2022-10-22T09:08:53;24.27;;;15.13;;
46875;SDS011;32866;50.160;14.768;2022-10-22T09:11:26;21.20;;;15.43;;
46875;SDS011;32866;50.160;14.768;2022-10-22T09:14:03;26.40;;;17.43;;
46875;SDS011;32866;50.160;14.768;2022-10-22T09:19:21;20.60;;;15.07;;
46875;SDS011;32866;50.160;14.768;2022-10-22T09:27:45;26.13;;;16.10;;
46875;SDS011;32866;50.160;14.768;2022-10-22T09:30:16;25.33;;;16.47;;
46875;SDS011;32866;50.160;14.768;2022-10-22T09:32:42;22.90;;;15.80;;
46875;SDS011;32866;50.160;14.768;2022-10-22T09:35:09;21.33;;;15.38;;
46875;SDS011;32866;50.160;14.768;2022-10-22T09:37:36;22.77;;;15.60;;
46875;SDS011;32866;50.160;14.768;2022-10-22T09:40:12;20.23;;;14.50;;
46875;SDS011;32866;50.160;14.768;2022-10-22T09:42:39;21.37;;;13.63;;
46875;SDS011;32866;50.160;14.768;2022-10-22T09:45:04;20.20;;;15.00;;
46875;SDS011;32866;50.160;14.768;2022-10-22T09:50:20;24.13;;;15.90;;
46875;SDS011;32866;50.160;14.768;2022-10-22T09:52:59;20.23;;;14.00;;
46875;SDS011;32866;50.160;14.768;2022-10-22T09:55:29;21.17;;;14.93;;
46875;SDS011;32866;50.160;14.768;2022-10-22T09:57:56;22.92;;;15.68;;
46875;SDS011;32866;50.160;14.768;2022-10-22T10:00:24;20.57;;;14.37;;
46875;SDS011;32866;50.160;14.768;2022-10-22T10:02:54;21.37;;;15.07;;
46875;SDS011;32866;50.160;14.768;2022-10-22T10:05:24;22.07;;;14.87;;
46875;SDS011;32866;50.160;14.768;2022-10-22T10:07:51;22.63;;;14.97;;
46875;SDS011;32866;50.160;14.768;2022-10-22T10:10:24;21.92;;;14.82;;
46875;SDS011;32866;50.160;14.768;2022-10-22T10:26:24;22.20;;;15.15;;
46875;SDS011;32866;50.160;14.768;2022-10-22T10:29:20;20.57;;;14.83;;
46875;SDS011;32866;50.160;14.768;2022-10-22T10:34:59;19.93;;;13.90;;
46875;SDS011;32866;50.160;14.768;2022-10-22T10:45:57;21.47;;;14.90;;
46875;SDS011;32866;50.160;14.768;2022-10-22T10:56:56;21.73;;;15.05;;
46875;SDS011;32866;50.160;14.768;2022-10-22T11:07:38;23.13;;;16.65;;
46875;SDS011;32866;50.160;14.768;2022-10-22T11:15:48;23.42;;;16.25;;
46875;SDS011;32866;50.160;14.768;2022-10-22T11:18:22;24.95;;;17.63;;
46875;SDS011;32866;50.160;14.768;2022-10-22T11:23:40;22.60;;;17.13;;
46875;SDS011;32866;50.160;14.768;2022-10-22T11:27:00;24.65;;;18.00;;
46875;SDS011;32866;50.160;14.768;2022-10-22T11:29:03;25.13;;;18.42;;
46875;SDS011;32866;50.160;14.768;2022-10-22T11:31:33;25.10;;;16.85;;
46875;SDS011;32866;50.160;14.768;2022-10-22T11:34:03;28.90;;;18.55;;
46875;SDS011;32866;50.160;14.768;2022-10-22T11:36:36;27.35;;;18.40;;
46875;SDS011;32866;50.160;14.768;2022-10-22T11:39:03;24.00;;;17.35;;
46875;SDS011;32866;50.160;14.768;2022-10-22T11:41:29;25.67;;;18.92;;
46875;SDS011;32866;50.160;14.768;2022-10-22T11:46:39;24.05;;;17.05;;
46875;SDS011;32866;50.160;14.768;2022-10-22T11:51:38;26.88;;;17.48;;
46875;SDS011;32866;50.160;14.768;2022-10-22T11:59:38;25.65;;;18.48;;
46875;SDS011;32866;50.160;14.768;2022-10-22T12:04:53;29.00;;;18.10;;
46875;SDS011;32866;50.160;14.768;2022-10-22T12:07:33;27.55;;;19.85;;
46875;SDS011;32866;50.160;14.768;2022-10-22T12:10:20;30.33;;;20.23;;
46875;SDS011;32866;50.160;14.768;2022-10-22T12:12:57;30.00;;;18.48;;
46875;SDS011;32866;50.160;14.768;2022-10-22T12:15:29;26.52;;;18.38;;
46875;SDS011;32866;50.160;14.768;2022-10-22T12:18:01;25.90;;;18.42;;
46875;SDS011;32866;50.160;14.768;2022-10-22T12:20:29;31.13;;;20.52;;
46875;SDS011;32866;50.160;14.768;2022-10-22T12:22:56;32.30;;;21.20;;
46875;SDS011;32866;50.160;14.768;2022-10-22T12:25:24;30.70;;;20.33;;
46875;SDS011;32866;50.160;14.768;2022-10-22T12:28:02;27.77;;;19.20;;
46875;SDS011;32866;50.160;14.768;2022-10-22T12:30:29;29.52;;;19.90;;
46875;SDS011;32866;50.160;14.768;2022-10-22T12:32:59;30.65;;;19.98;;
46875;SDS011;32866;50.160;14.768;2022-10-22T12:35:27;29.00;;;20.40;;
46875;SDS011;32866;50.160;14.768;2022-10-22T12:37:59;27.30;;;19.48;;
46875;SDS011;32866;50.160;14.768;2022-10-22T12:40:27;28.70;;;18.23;;
46875;SDS011;32866;50.160;14.768;2022-10-22T12:42:55;24.80;;;17.38;;
46875;SDS011;32866;50.160;14.768;2022-10-22T12:45:25;26.85;;;18.52;;
46875;SDS011;32866;50.160;14.768;2022-10-22T12:47:55;28.95;;;20.05;;
46875;SDS011;32866;50.160;14.768;2022-10-22T12:50:35;25.42;;;18.02;;
46875;SDS011;32866;50.160;14.768;2022-10-22T12:53:05;26.85;;;20.48;;
46875;SDS011;32866;50.160;14.768;2022-10-22T12:55:39;30.15;;;20.10;;
46875;SDS011;32866;50.160;14.768;2022-10-22T12:58:05;25.75;;;18.38;;
46875;SDS011;32866;50.160;14.768;2022-10-22T13:03:06;30.30;;;19.85;;
46875;SDS011;32866;50.160;14.768;2022-10-22T13:05:32;30.50;;;20.15;;
46875;SDS011;32866;50.160;14.768;2022-10-22T13:08:11;27.20;;;19.35;;
46875;SDS011;32866;50.160;14.768;2022-10-22T13:10:52;31.75;;;21.27;;
46875;SDS011;32866;50.160;14.768;2022-10-22T13:13:28;28.98;;;19.42;;
46875;SDS011;32866;50.160;14.768;2022-10-22T13:16:21;33.67;;;21.50;;
46875;SDS011;32866;50.160;14.768;2022-10-22T13:18:48;32.78;;;22.08;;
46875;SDS011;32866;50.160;14.768;2022-10-22T13:23:55;30.50;;;20.08;;
46875;SDS011;32866;50.160;14.768;2022-10-22T13:26:23;32.95;;;19.85;;
46875;SDS011;32866;50.160;14.768;2022-10-22T13:28:55;29.10;;;20.58;;
46875;SDS011;32866;50.160;14.768;2022-10-22T13:31:25;29.48;;;19.90;;
46875;SDS011;32866;50.160;14.768;2022-10-22T13:33:54;26.92;;;20.13;;
46875;SDS011;32866;50.160;14.768;2022-10-22T13:36:21;28.98;;;18.85;;
46875;SDS011;32866;50.160;14.768;2022-10-22T13:38:47;29.73;;;20.55;;
46875;SDS011;32866;50.160;14.768;2022-10-22T13:41:17;35.65;;;22.77;;
46875;SDS011;32866;50.160;14.768;2022-10-22T13:43:47;27.27;;;19.05;;
46875;SDS011;32866;50.160;14.768;2022-10-22T13:46:12;31.10;;;20.83;;
46875;SDS011;32866;50.160;14.768;2022-10-22T13:48:38;26.77;;;19.80;;
46875;SDS011;32866;50.160;14.768;2022-10-22T13:51:05;26.83;;;19.63;;
46875;SDS011;32866;50.160;14.768;2022-10-22T13:53:37;29.02;;;20.63;;
46875;SDS011;32866;50.160;14.768;2022-10-22T13:56:02;27.20;;;19.42;;
46875;SDS011;32866;50.160;14.768;2022-10-22T13:58:28;30.25;;;20.17;;
46875;SDS011;32866;50.160;14.768;2022-10-22T14:00:54;33.92;;;21.52;;
46875;SDS011;32866;50.160;14.768;2022-10-22T14:03:24;29.92;;;20.10;;
46875;SDS011;32866;50.160;14.768;2022-10-22T14:05:52;30.20;;;20.48;;
46875;SDS011;32866;50.160;14.768;2022-10-22T14:08:18;30.95;;;21.20;;
46875;SDS011;32866;50.160;14.768;2022-10-22T14:10:45;26.65;;;19.30;;
46875;SDS011;32866;50.160;14.768;2022-10-22T14:13:11;27.90;;;20.60;;
46875;SDS011;32866;50.160;14.768;2022-10-22T14:15:38;30.55;;;19.58;;
46875;SDS011;32866;50.160;14.768;2022-10-22T14:18:05;29.83;;;19.63;;
46875;SDS011;32866;50.160;14.768;2022-10-22T14:20:33;33.10;;;20.02;;
46875;SDS011;32866;50.160;14.768;2022-10-22T14:23:01;31.42;;;20.23;;
46875;SDS011;32866;50.160;14.768;2022-10-22T14:25:36;28.02;;;20.27;;
46875;SDS011;32866;50.160;14.768;2022-10-22T14:28:02;33.33;;;20.20;;
46875;SDS011;32866;50.160;14.768;2022-10-22T14:30:27;30.95;;;20.33;;
46875;SDS011;32866;50.160;14.768;2022-10-22T14:32:54;34.08;;;21.23;;
46875;SDS011;32866;50.160;14.768;2022-10-22T14:35:22;30.42;;;20.73;;
46875;SDS011;32866;50.160;14.768;2022-10-22T14:37:48;34.17;;;22.63;;
46875;SDS011;32866;50.160;14.768;2022-10-22T14:42:41;25.57;;;18.53;;
46875;SDS011;32866;50.160;14.768;2022-10-22T14:45:11;27.70;;;20.17;;
46875;SDS011;32866;50.160;14.768;2022-10-22T14:47:40;31.27;;;21.17;;
46875;SDS011;32866;50.160;14.768;2022-10-22T14:50:06;32.75;;;22.30;;
46875;SDS011;32866;50.160;14.768;2022-10-22T14:52:32;32.60;;;21.50;;
46875;SDS011;32866;50.160;14.768;2022-10-22T14:54:57;32.10;;;21.30;;
46875;SDS011;32866;50.160;14.768;2022-10-22T14:57:23;35.63;;;23.83;;
46875;SDS011;32866;50.160;14.768;2022-10-22T14:59:48;35.20;;;21.92;;
46875;SDS011;32866;50.160;14.768;2022-10-22T15:02:14;31.83;;;20.83;;
46875;SDS011;32866;50.160;14.768;2022-10-22T15:04:39;35.08;;;22.50;;
46875;SDS011;32866;50.160;14.768;2022-10-22T15:07:05;38.33;;;23.58;;
46875;SDS011;32866;50.160;14.768;2022-10-22T15:09:30;35.90;;;23.27;;
46875;SDS011;32866;50.160;14.768;2022-10-22T15:11:55;32.85;;;22.58;;
46875;SDS011;32866;50.160;14.768;2022-10-22T15:14:21;35.03;;;23.08;;
46875;SDS011;32866;50.160;14.768;2022-10-22T15:16:46;36.13;;;23.17;;
46875;SDS011;32866;50.160;14.768;2022-10-22T15:19:12;31.92;;;22.65;;
46875;SDS011;32866;50.160;14.768;2022-10-22T15:21:37;34.72;;;24.35;;
46875;SDS011;32866;50.160;14.768;2022-10-22T15:24:03;33.60;;;21.70;;
46875;SDS011;32866;50.160;14.768;2022-10-22T15:26:28;33.55;;;23.15;;
46875;SDS011;32866;50.160;14.768;2022-10-22T15:28:54;34.65;;;22.90;;
46875;SDS011;32866;50.160;14.768;2022-10-22T15:31:39;34.65;;;21.25;;
46875;SDS011;32866;50.160;14.768;2022-10-22T15:34:07;42.88;;;25.48;;
46875;SDS011;32866;50.160;14.768;2022-10-22T15:36:32;36.10;;;22.88;;
46875;SDS011;32866;50.160;14.768;2022-10-22T15:38:57;42.40;;;26.48;;
46875;SDS011;32866;50.160;14.768;2022-10-22T15:41:23;36.50;;;24.65;;
46875;SDS011;32866;50.160;14.768;2022-10-22T15:43:48;41.33;;;26.70;;
46875;SDS011;32866;50.160;14.768;2022-10-22T15:46:15;38.05;;;23.80;;
46875;SDS011;32866;50.160;14.768;2022-10-22T15:48:42;43.72;;;26.30;;
46875;SDS011;32866;50.160;14.768;2022-10-22T15:51:17;46.45;;;29.20;;
46875;SDS011;32866;50.160;14.768;2022-10-22T15:53:43;43.70;;;26.33;;
46875;SDS011;32866;50.160;14.768;2022-10-22T15:56:15;36.35;;;25.10;;
46875;SDS011;32866;50.160;14.768;2022-10-22T15:58:40;37.80;;;24.77;;
46875;SDS011;32866;50.160;14.768;2022-10-22T16:01:06;38.85;;;23.92;;
46875;SDS011;32866;50.160;14.768;2022-10-22T16:03:34;35.08;;;23.08;;
46875;SDS011;32866;50.160;14.768;2022-10-22T16:05:59;35.95;;;23.15;;
46875;SDS011;32866;50.160;14.768;2022-10-22T16:08:25;34.63;;;21.60;;
46875;SDS011;32866;50.160;14.768;2022-10-22T16:10:51;36.22;;;24.10;;
46875;SDS011;32866;50.160;14.768;2022-10-22T16:13:17;36.65;;;23.73;;
46875;SDS011;32866;50.160;14.768;2022-10-22T16:15:44;35.55;;;24.27;;
46875;SDS011;32866;50.160;14.768;2022-10-22T16:18:10;44.88;;;26.05;;